Time,TemperatureF,DewpointF,PressureIn,WindDirection,WindDirectionDegrees,WindSpeedMPH,WindSpeedGustMPH,Humidity,HourlyPrecipIn,Conditions,Clouds,dailyrainin,SoftwareType,DateUTC
2013-04-15 00:13:00,38.3,27.0,30.13,East,101,0.0,-999.0,64,-99.99,,,0.00,weatherlink.com 1.10,2013-04-15 04:13:00,
2013-04-15 00:28:00,38.2,27.0,30.12,East,101,0.0,-999.0,65,-99.99,,,0.00,weatherlink.com 1.10,2013-04-15 04:28:00,
2013-04-15 00:43:00,38.0,27.0,30.12,East,101,0.0,-999.0,65,-99.99,,,0.00,weatherlink.com 1.10,2013-04-15 04:43:00,
2013-04-15 00:58:00,37.9,27.0,30.11,East,101,0.0,-999.0,65,-99.99,,,0.00,weatherlink.com 1.10,2013-04-15 04:58:00,
2013-04-15 01:13:00,37.9,27.0,30.11,East,101,0.0,-999.0,66,-99.99,,,0.00,weatherlink.com 1.10,2013-04-15 05:13:00,
2013-04-15 01:28:00,37.9,27.0,30.11,East,101,0.0,-999.0,66,-99.99,,,0.00,weatherlink.com 1.10,2013-04-15 05:28:00,
2013-04-15 01:43:00,37.9,28.0,30.10,East,99,0.0,-999.0,67,-99.99,,,0.00,weatherlink.com 1.10,2013-04-15 05:43:00,
2013-04-15 01:58:00,37.9,28.0,30.10,East,97,0.0,-999.0,68,-99.99,,,0.00,weatherlink.com 1.10,2013-04-15 05:58:00,
2013-04-15 02:13:00,37.9,28.0,30.10,East,97,0.0,-999.0,68,-99.99,,,0.00,weatherlink.com 1.10,2013-04-15 06:13:00,
2013-04-15 02:28:00,37.9,28.0,30.09,East,97,0.0,-999.0,68,-99.99,,,0.00,weatherlink.com 1.10,2013-04-15 06:28:00,
2013-04-15 02:43:00,37.9,29.0,30.08,East,97,0.0,-999.0,69,-99.99,,,0.00,weatherlink.com 1.10,2013-04-15 06:43:00,
2013-04-15 02:58:00,38.0,29.0,30.08,East,97,0.0,-999.0,69,-99.99,,,0.00,weatherlink.com 1.10,2013-04-15 06:58:00,
2013-04-15 03:43:00,38.0,29.0,30.07,East,96,0.0,-999.0,69,-99.99,,,0.00,weatherlink.com 1.10,2013-04-15 07:43:00,
2013-04-15 03:58:00,38.2,29.0,30.07,East,96,0.0,-999.0,70,-99.99,,,0.00,weatherlink.com 1.10,2013-04-15 07:58:00,
2013-04-15 04:13:00,38.3,29.0,30.08,East,90,0.0,-999.0,69,-99.99,,,0.00,weatherlink.com 1.10,2013-04-15 08:13:00,
2013-04-15 04:28:00,38.5,29.0,30.08,East,90,0.0,-999.0,69,-99.99,,,0.00,weatherlink.com 1.10,2013-04-15 08:28:00,
2013-04-15 04:43:00,38.6,29.0,30.08,East,90,0.0,-999.0,69,-99.99,,,0.00,weatherlink.com 1.10,2013-04-15 08:43:00,
2013-04-15 04:58:00,38.9,29.0,30.08,East,90,0.0,-999.0,69,-99.99,,,0.00,weatherlink.com 1.10,2013-04-15 08:58:00,
2013-04-15 05:13:00,39.1,30.0,30.08,East,90,0.0,-999.0,69,-99.99,,,0.00,weatherlink.com 1.10,2013-04-15 09:13:00,
2013-04-15 05:28:00,39.1,30.0,30.08,East,90,0.0,-999.0,70,-99.99,,,0.00,weatherlink.com 1.10,2013-04-15 09:28:00,
2013-04-15 05:43:00,39.2,30.0,30.07,East,90,0.0,-999.0,70,-99.99,,,0.00,weatherlink.com 1.10,2013-04-15 09:43:00,
2013-04-15 05:58:00,39.2,30.0,30.07,NE,52,0.0,-999.0,70,-99.99,,,0.00,weatherlink.com 1.10,2013-04-15 09:58:00,
2013-04-15 06:13:00,38.8,30.0,30.07,NE,42,0.0,-999.0,71,-99.99,,,0.00,weatherlink.com 1.10,2013-04-15 10:13:00,
2013-04-15 06:28:00,38.8,30.0,30.06,NE,42,0.0,-999.0,71,-99.99,,,0.00,weatherlink.com 1.10,2013-04-15 10:28:00,
2013-04-15 06:43:00,39.1,30.0,30.07,NE,42,0.0,-999.0,71,-99.99,,,0.00,weatherlink.com 1.10,2013-04-15 10:43:00,
2013-04-15 06:58:00,39.3,31.0,30.07,NE,42,0.0,-999.0,71,-99.99,,,0.00,weatherlink.com 1.10,2013-04-15 10:58:00,
2013-04-15 07:13:00,39.6,31.0,30.07,NE,42,0.0,-999.0,71,-99.99,,,0.00,weatherlink.com 1.10,2013-04-15 11:13:00,
2013-04-15 07:28:00,40.1,31.0,30.08,NE,42,0.0,-999.0,70,-99.99,,,0.00,weatherlink.com 1.10,2013-04-15 11:28:00,
2013-04-15 07:43:00,40.5,31.0,30.08,NE,42,0.0,-999.0,70,-99.99,,,0.00,weatherlink.com 1.10,2013-04-15 11:43:00,
2013-04-15 08:13:00,42.9,33.0,30.08,NE,42,0.0,-999.0,67,-99.99,,,0.00,weatherlink.com 1.10,2013-04-15 12:13:00,
2013-04-15 08:28:00,44.6,33.0,30.08,NE,42,0.0,-999.0,65,-99.99,,,0.00,weatherlink.com 1.10,2013-04-15 12:28:00,
2013-04-15 08:43:00,45.8,34.0,30.08,NE,42,0.0,-999.0,64,-99.99,,,0.00,weatherlink.com 1.10,2013-04-15 12:43:00,
2013-04-15 08:58:00,48.2,35.0,30.07,NE,42,0.0,-999.0,60,-99.99,,,0.00,weatherlink.com 1.10,2013-04-15 12:58:00,
2013-04-15 09:13:00,50.4,35.0,30.07,NE,42,0.0,-999.0,57,-99.99,,,0.00,weatherlink.com 1.10,2013-04-15 13:13:00,
2013-04-15 09:28:00,52.5,37.0,30.07,NE,42,0.0,-999.0,56,-99.99,,,0.00,weatherlink.com 1.10,2013-04-15 13:28:00,
2013-04-15 09:44:00,54.8,38.0,30.07,NE,42,0.0,-999.0,53,-99.99,,,0.00,weatherlink.com 1.10,2013-04-15 13:44:00,
2013-04-15 09:59:00,56.7,36.0,30.06,South,183,0.0,-999.0,47,-99.99,,,0.00,weatherlink.com 1.10,2013-04-15 13:59:00,
2013-04-15 10:29:00,59.3,38.0,30.05,SSW,203,0.0,-999.0,45,-99.99,,,0.00,weatherlink.com 1.10,2013-04-15 14:29:00,
2013-04-15 10:44:00,61.3,39.0,30.05,South,183,3.0,-999.0,44,-99.99,,,0.00,weatherlink.com 1.10,2013-04-15 14:44:00,
2013-04-15 10:59:00,63.2,40.0,30.05,West,261,0.0,-999.0,43,-99.99,,,0.00,weatherlink.com 1.10,2013-04-15 14:59:00,
2013-04-15 11:14:00,65.2,40.0,30.04,SW,226,0.0,-999.0,40,-99.99,,,0.00,weatherlink.com 1.10,2013-04-15 15:14:00,
2013-04-15 11:29:00,66.6,41.0,30.03,SW,234,3.0,-999.0,39,-99.99,,,0.00,weatherlink.com 1.10,2013-04-15 15:29:00,
2013-04-15 11:44:00,67.4,41.0,30.03,SSW,194,2.0,-999.0,39,-99.99,,,0.00,weatherlink.com 1.10,2013-04-15 15:44:00,
2013-04-15 11:59:00,68.1,42.0,30.03,WSW,243,4.0,-999.0,39,-99.99,,,0.00,weatherlink.com 1.10,2013-04-15 15:59:00,
2013-04-15 12:14:00,69.1,43.0,30.02,WSW,249,0.0,-999.0,39,-99.99,,,0.00,weatherlink.com 1.10,2013-04-15 16:14:00,
2013-04-15 12:29:00,68.9,42.0,30.02,SW,235,5.0,-999.0,38,-99.99,,,0.00,weatherlink.com 1.10,2013-04-15 16:29:00,
2013-04-15 12:44:00,69.3,42.0,30.02,SSW,207,0.0,-999.0,37,-99.99,,,0.00,weatherlink.com 1.10,2013-04-15 16:44:00,
2013-04-15 12:59:00,69.4,42.0,30.02,SW,231,0.0,-999.0,37,-99.99,,,0.00,weatherlink.com 1.10,2013-04-15 16:59:00,
2013-04-15 13:29:00,69.9,43.0,30.03,NW,311,2.0,-999.0,38,-99.99,,,0.00,weatherlink.com 1.10,2013-04-15 17:29:00,
2013-04-15 13:44:00,69.3,42.0,30.04,West,272,0.0,-999.0,37,-99.99,,,0.00,weatherlink.com 1.10,2013-04-15 17:44:00,
2013-04-15 13:59:00,69.6,43.0,30.04,WSW,244,5.0,-999.0,38,-99.99,,,0.00,weatherlink.com 1.10,2013-04-15 17:59:00,
2013-04-15 14:14:00,70.3,44.0,30.03,SW,223,2.0,-999.0,39,-99.99,,,0.00,weatherlink.com 1.10,2013-04-15 18:14:00,
2013-04-15 14:29:00,70.8,43.0,30.03,WSW,242,0.0,-999.0,37,-99.99,,,0.00,weatherlink.com 1.10,2013-04-15 18:29:00,
2013-04-15 14:44:00,71.5,44.0,30.02,West,269,0.0,-999.0,37,-99.99,,,0.00,weatherlink.com 1.10,2013-04-15 18:44:00,
2013-04-15 14:59:00,71.3,43.0,30.02,West,272,0.0,-999.0,36,-99.99,,,0.00,weatherlink.com 1.10,2013-04-15 18:59:00,
2013-04-15 15:14:00,71.8,43.0,30.01,WSW,244,2.0,-999.0,36,-99.99,,,0.00,weatherlink.com 1.10,2013-04-15 19:14:00,
2013-04-15 15:29:00,72.3,43.0,30.00,NNE,16,0.0,-999.0,35,-99.99,,,0.00,weatherlink.com 1.10,2013-04-15 19:29:00,
2013-04-15 15:44:00,72.0,44.0,30.00,SW,223,0.0,-999.0,37,-99.99,,,0.00,weatherlink.com 1.10,2013-04-15 19:44:00,
2013-04-15 15:59:00,71.6,44.0,29.99,SW,229,0.0,-999.0,37,-99.99,,,0.00,weatherlink.com 1.10,2013-04-15 19:59:00,
2013-04-15 16:14:00,71.1,43.0,29.99,SW,229,0.0,-999.0,36,-99.99,,,0.00,weatherlink.com 1.10,2013-04-15 20:14:00,
2013-04-15 16:29:00,71.5,43.0,29.97,SW,229,0.0,-999.0,36,-99.99,,,0.00,weatherlink.com 1.10,2013-04-15 20:29:00,
2013-04-15 16:44:00,72.0,44.0,29.97,SSW,213,2.0,-999.0,36,-99.99,,,0.00,weatherlink.com 1.10,2013-04-15 20:44:00,
2013-04-15 16:59:00,72.3,44.0,29.96,SSW,198,0.0,-999.0,36,-99.99,,,0.00,weatherlink.com 1.10,2013-04-15 20:59:00,
2013-04-15 17:14:00,72.5,44.0,29.95,SSW,193,0.0,-999.0,36,-99.99,,,0.00,weatherlink.com 1.10,2013-04-15 21:14:00,
2013-04-15 17:29:00,72.3,45.0,29.95,South,191,0.0,-999.0,38,-99.99,,,0.00,weatherlink.com 1.10,2013-04-15 21:29:00,
2013-04-15 17:44:00,72.1,43.0,29.95,South,169,0.0,-999.0,35,-99.99,,,0.00,weatherlink.com 1.10,2013-04-15 21:44:00,
2013-04-15 17:59:00,70.8,46.0,29.96,South,169,0.0,-999.0,42,-99.99,,,0.00,weatherlink.com 1.10,2013-04-15 21:59:00,
2013-04-15 18:14:00,69.9,44.0,29.97,South,177,3.0,-999.0,39,-99.99,,,0.00,weatherlink.com 1.10,2013-04-15 22:14:00,
2013-04-15 18:29:00,69.9,44.0,29.98,WSW,239,6.0,-999.0,39,-99.99,,,0.00,weatherlink.com 1.10,2013-04-15 22:29:00,
2013-04-15 18:44:00,69.4,45.0,29.98,SSW,203,5.0,-999.0,41,-99.99,,,0.00,weatherlink.com 1.10,2013-04-15 22:44:00,
2013-04-15 18:59:00,68.8,45.0,29.98,SSW,194,3.0,-999.0,42,-99.99,,,0.00,weatherlink.com 1.10,2013-04-15 22:59:00,
2013-04-15 19:14:00,67.6,45.0,29.98,SSW,197,5.0,-999.0,44,-99.99,,,0.00,weatherlink.com 1.10,2013-04-15 23:14:00,
2013-04-15 19:29:00,66.6,45.0,30.00,South,187,2.0,-999.0,46,-99.99,,,0.00,weatherlink.com 1.10,2013-04-15 23:29:00,
2013-04-15 19:44:00,65.6,45.0,29.99,South,188,1.0,-999.0,48,-99.99,,,0.00,weatherlink.com 1.10,2013-04-15 23:44:00,
2013-04-15 19:59:00,65.0,45.0,30.00,South,180,1.0,-999.0,49,-99.99,,,0.00,weatherlink.com 1.10,2013-04-15 23:59:00,
2013-04-15 20:14:00,64.2,46.0,29.99,WSW,251,0.0,-999.0,51,-99.99,,,0.00,weatherlink.com 1.10,2013-04-16 00:14:00,
2013-04-15 20:29:00,63.9,46.0,30.00,SSW,211,0.0,-999.0,52,-99.99,,,0.00,weatherlink.com 1.10,2013-04-16 00:29:00,
2013-04-15 20:44:00,63.4,46.0,30.00,WSW,239,2.0,-999.0,53,-99.99,,,0.00,weatherlink.com 1.10,2013-04-16 00:44:00,
2013-04-15 20:59:00,62.9,46.0,30.00,South,186,0.0,-999.0,54,-99.99,,,0.00,weatherlink.com 1.10,2013-04-16 00:59:00,
2013-04-15 21:14:00,63.1,46.0,30.00,South,191,4.0,-999.0,55,-99.99,,,0.00,weatherlink.com 1.10,2013-04-16 01:14:00,
2013-04-15 21:29:00,62.6,46.0,30.00,SSW,200,2.0,-999.0,56,-99.99,,,0.00,weatherlink.com 1.10,2013-04-16 01:29:00,
2013-04-15 21:44:00,62.0,47.0,30.01,South,182,1.0,-999.0,58,-99.99,,,0.00,weatherlink.com 1.10,2013-04-16 01:44:00,
2013-04-15 21:59:00,61.3,46.0,30.02,SW,234,1.0,-999.0,58,-99.99,,,0.00,weatherlink.com 1.10,2013-04-16 01:59:00,
2013-04-15 22:14:00,61.2,46.0,30.01,South,182,5.0,-999.0,58,-99.99,,,0.00,weatherlink.com 1.10,2013-04-16 02:14:00,
2013-04-15 22:29:00,61.2,46.0,30.01,South,183,4.0,-999.0,58,-99.99,,,0.00,weatherlink.com 1.10,2013-04-16 02:29:00,
2013-04-15 22:44:00,61.3,46.0,30.00,SSW,192,5.0,-999.0,57,-99.99,,,0.00,weatherlink.com 1.10,2013-04-16 02:44:00,
2013-04-15 22:59:00,61.6,46.0,30.00,SSW,203,3.0,-999.0,56,-99.99,,,0.00,weatherlink.com 1.10,2013-04-16 02:59:00,
2013-04-15 23:14:00,61.8,45.0,30.00,SSW,207,2.0,-999.0,55,-99.99,,,0.00,weatherlink.com 1.10,2013-04-16 03:14:00,
2013-04-15 23:29:00,62.0,45.0,29.99,South,178,6.0,-999.0,55,-99.99,,,0.00,weatherlink.com 1.10,2013-04-16 03:29:00,
2013-04-15 23:44:00,62.0,45.0,29.99,WNW,285,0.0,-999.0,55,-99.99,,,0.00,weatherlink.com 1.10,2013-04-16 03:44:00,
2013-04-15 23:59:00,62.1,45.0,29.99,SSW,201,3.0,-999.0,54,-99.99,,,0.00,weatherlink.com 1.10,2013-04-16 03:59:00,